sensor_id;sensor_type;location;lat;lon;timestamp;temperature;humidity
19968;DHT22;10145;49.152;9.282;2023-05-06T00:01:33;13.70;99.90
19968;DHT22;10145;49.152;9.282;2023-05-06T00:03:59;13.60;99.90
19968;DHT22;10145;49.152;9.282;2023-05-06T00:06:24;13.60;99.90
19968;DHT22;10145;49.152;9.282;2023-05-06T00:08:51;13.60;99.90
19968;DHT22;10145;49.152;9.282;2023-05-06T00:11:17;13.50;99.90
19968;DHT22;10145;49.152;9.282;2023-05-06T00:13:42;13.50;99.90
19968;DHT22;10145;49.152;9.282;2023-05-06T00:16:08;13.40;99.90
19968;DHT22;10145;49.152;9.282;2023-05-06T00:18:33;13.40;99.90
19968;DHT22;10145;49.152;9.282;2023-05-06T00:20:59;13.30;99.90
19968;DHT22;10145;49.152;9.282;2023-05-06T00:23:27;13.30;99.90
19968;DHT22;10145;49.152;9.282;2023-05-06T00:25:53;13.40;99.90
19968;DHT22;10145;49.152;9.282;2023-05-06T00:28:19;13.30;99.90
19968;DHT22;10145;49.152;9.282;2023-05-06T00:30:44;13.30;99.90
19968;DHT22;10145;49.152;9.282;2023-05-06T00:33:10;13.40;99.90
19968;DHT22;10145;49.152;9.282;2023-05-06T00:35:35;13.50;99.90
19968;DHT22;10145;49.152;9.282;2023-05-06T00:38:10;13.50;99.90
19968;DHT22;10145;49.152;9.282;2023-05-06T00:40:36;13.50;99.90
19968;DHT22;10145;49.152;9.282;2023-05-06T00:43:01;13.60;99.90
19968;DHT22;10145;49.152;9.282;2023-05-06T00:45:27;13.60;99.90
19968;DHT22;10145;49.152;9.282;2023-05-06T00:47:54;13.60;99.90
19968;DHT22;10145;49.152;9.282;2023-05-06T00:50:20;13.50;99.90
19968;DHT22;10145;49.152;9.282;2023-05-06T00:52:47;13.50;99.90
19968;DHT22;10145;49.152;9.282;2023-05-06T00:55:13;13.50;99.90
19968;DHT22;10145;49.152;9.282;2023-05-06T00:57:39;13.60;99.90
19968;DHT22;10145;49.152;9.282;2023-05-06T01:00:05;13.50;99.90
19968;DHT22;10145;49.152;9.282;2023-05-06T01:02:32;13.50;99.90
19968;DHT22;10145;49.152;9.282;2023-05-06T01:04:58;13.50;99.90
19968;DHT22;10145;49.152;9.282;2023-05-06T01:10:34;13.50;99.90
19968;DHT22;10145;49.152;9.282;2023-05-06T01:15:45;13.60;99.90
19968;DHT22;10145;49.152;9.282;2023-05-06T01:18:21;13.50;99.90
19968;DHT22;10145;49.152;9.282;2023-05-06T01:20:48;13.50;99.90
19968;DHT22;10145;49.152;9.282;2023-05-06T01:23:14;13.50;99.90
19968;DHT22;10145;49.152;9.282;2023-05-06T01:25:40;13.50;99.90
19968;DHT22;10145;49.152;9.282;2023-05-06T01:28:07;13.50;99.90
19968;DHT22;10145;49.152;9.282;2023-05-06T01:30:58;13.50;99.90
19968;DHT22;10145;49.152;9.282;2023-05-06T01:36:27;13.50;99.90
19968;DHT22;10145;49.152;9.282;2023-05-06T01:41:34;13.40;99.90
19968;DHT22;10145;49.152;9.282;2023-05-06T01:44:03;13.40;99.90
19968;DHT22;10145;49.152;9.282;2023-05-06T01:46:30;13.40;99.90
19968;DHT22;10145;49.152;9.282;2023-05-06T01:48:59;13.50;99.90
19968;DHT22;10145;49.152;9.282;2023-05-06T01:51:25;13.50;99.90
19968;DHT22;10145;49.152;9.282;2023-05-06T01:53:51;13.40;99.90
19968;DHT22;10145;49.152;9.282;2023-05-06T01:56:17;13.50;99.90
19968;DHT22;10145;49.152;9.282;2023-05-06T01:58:42;13.50;99.90
19968;DHT22;10145;49.152;9.282;2023-05-06T02:01:08;13.40;99.90
19968;DHT22;10145;49.152;9.282;2023-05-06T02:03:33;13.50;99.90
19968;DHT22;10145;49.152;9.282;2023-05-06T02:05:59;13.40;99.90
19968;DHT22;10145;49.152;9.282;2023-05-06T02:08:24;13.40;99.90
19968;DHT22;10145;49.152;9.282;2023-05-06T02:10:50;13.40;99.90
19968;DHT22;10145;49.152;9.282;2023-05-06T02:13:17;13.40;99.90
19968;DHT22;10145;49.152;9.282;2023-05-06T02:15:42;13.40;99.90
19968;DHT22;10145;49.152;9.282;2023-05-06T02:18:08;13.40;99.90
19968;DHT22;10145;49.152;9.282;2023-05-06T02:20:36;13.40;99.90
19968;DHT22;10145;49.152;9.282;2023-05-06T02:23:02;13.30;99.90
19968;DHT22;10145;49.152;9.282;2023-05-06T02:25:28;13.30;99.90
19968;DHT22;10145;49.152;9.282;2023-05-06T02:27:54;13.30;99.90
19968;DHT22;10145;49.152;9.282;2023-05-06T02:30:19;13.20;99.90
19968;DHT22;10145;49.152;9.282;2023-05-06T02:32:45;13.20;99.90
19968;DHT22;10145;49.152;9.282;2023-05-06T02:35:11;13.10;99.90
19968;DHT22;10145;49.152;9.282;2023-05-06T02:37:36;13.00;99.90
19968;DHT22;10145;49.152;9.282;2023-05-06T02:40:02;13.00;99.90
19968;DHT22;10145;49.152;9.282;2023-05-06T02:42:30;13.10;99.90
19968;DHT22;10145;49.152;9.282;2023-05-06T02:44:56;13.00;99.90
19968;DHT22;10145;49.152;9.282;2023-05-06T02:47:21;13.00;99.90
19968;DHT22;10145;49.152;9.282;2023-05-06T02:49:47;13.10;99.90
19968;DHT22;10145;49.152;9.282;2023-05-06T02:52:13;13.10;99.90
19968;DHT22;10145;49.152;9.282;2023-05-06T02:54:38;13.20;99.90
19968;DHT22;10145;49.152;9.282;2023-05-06T02:57:04;13.20;99.90
19968;DHT22;10145;49.152;9.282;2023-05-06T02:59:29;13.30;99.90
19968;DHT22;10145;49.152;9.282;2023-05-06T03:01:55;13.30;99.90
19968;DHT22;10145;49.152;9.282;2023-05-06T03:04:21;13.30;99.90
19968;DHT22;10145;49.152;9.282;2023-05-06T03:06:46;13.40;99.90
19968;DHT22;10145;49.152;9.282;2023-05-06T03:09:12;13.40;99.90
19968;DHT22;10145;49.152;9.282;2023-05-06T03:11:37;13.40;99.90
19968;DHT22;10145;49.152;9.282;2023-05-06T03:14:03;13.40;99.90
19968;DHT22;10145;49.152;9.282;2023-05-06T03:16:28;13.50;99.90
19968;DHT22;10145;49.152;9.282;2023-05-06T03:18:54;13.50;99.90
19968;DHT22;10145;49.152;9.282;2023-05-06T03:21:20;13.50;99.90
19968;DHT22;10145;49.152;9.282;2023-05-06T03:23:45;13.60;99.90
19968;DHT22;10145;49.152;9.282;2023-05-06T03:26:11;13.40;99.90
19968;DHT22;10145;49.152;9.282;2023-05-06T03:28:36;13.40;99.90
19968;DHT22;10145;49.152;9.282;2023-05-06T03:31:02;13.30;99.90
19968;DHT22;10145;49.152;9.282;2023-05-06T03:33:28;13.30;99.90
19968;DHT22;10145;49.152;9.282;2023-05-06T03:35:53;13.40;99.90
19968;DHT22;10145;49.152;9.282;2023-05-06T03:38:19;13.30;99.90
19968;DHT22;10145;49.152;9.282;2023-05-06T03:40:44;13.30;99.90
19968;DHT22;10145;49.152;9.282;2023-05-06T03:43:10;13.30;99.90
19968;DHT22;10145;49.152;9.282;2023-05-06T03:45:35;13.30;99.90
19968;DHT22;10145;49.152;9.282;2023-05-06T03:48:02;13.20;99.90
19968;DHT22;10145;49.152;9.282;2023-05-06T03:50:27;13.20;99.90
19968;DHT22;10145;49.152;9.282;2023-05-06T03:52:53;13.20;99.90
19968;DHT22;10145;49.152;9.282;2023-05-06T03:55:21;13.20;99.90
19968;DHT22;10145;49.152;9.282;2023-05-06T03:57:47;13.10;99.90
19968;DHT22;10145;49.152;9.282;2023-05-06T04:00:12;13.10;99.90
19968;DHT22;10145;49.152;9.282;2023-05-06T04:02:38;13.00;99.90
19968;DHT22;10145;49.152;9.282;2023-05-06T04:05:04;13.10;99.90
19968;DHT22;10145;49.152;9.282;2023-05-06T04:07:29;13.00;99.90
19968;DHT22;10145;49.152;9.282;2023-05-06T04:09:55;13.00;99.90
19968;DHT22;10145;49.152;9.282;2023-05-06T04:12:21;13.00;99.90
19968;DHT22;10145;49.152;9.282;2023-05-06T04:14:47;12.90;99.90
19968;DHT22;10145;49.152;9.282;2023-05-06T04:17:12;12.90;99.90
19968;DHT22;10145;49.152;9.282;2023-05-06T04:19:38;12.90;99.90
19968;DHT22;10145;49.152;9.282;2023-05-06T04:22:04;12.90;99.90
19968;DHT22;10145;49.152;9.282;2023-05-06T04:24:29;12.80;99.90
19968;DHT22;10145;49.152;9.282;2023-05-06T04:26:55;12.90;99.90
19968;DHT22;10145;49.152;9.282;2023-05-06T04:29:21;12.90;99.90
19968;DHT22;10145;49.152;9.282;2023-05-06T04:31:47;12.90;99.90
19968;DHT22;10145;49.152;9.282;2023-05-06T04:34:12;12.90;99.90
19968;DHT22;10145;49.152;9.282;2023-05-06T04:36:38;12.90;99.90
19968;DHT22;10145;49.152;9.282;2023-05-06T04:39:03;12.90;99.90
19968;DHT22;10145;49.152;9.282;2023-05-06T04:41:31;12.90;99.90
19968;DHT22;10145;49.152;9.282;2023-05-06T04:43:57;13.00;99.90
19968;DHT22;10145;49.152;9.282;2023-05-06T04:46:23;13.00;99.90
19968;DHT22;10145;49.152;9.282;2023-05-06T04:48:48;13.10;99.90
19968;DHT22;10145;49.152;9.282;2023-05-06T04:51:14;13.20;99.90
19968;DHT22;10145;49.152;9.282;2023-05-06T04:53:39;13.20;99.90
19968;DHT22;10145;49.152;9.282;2023-05-06T04:56:06;13.20;99.90
19968;DHT22;10145;49.152;9.282;2023-05-06T04:58:31;13.30;99.90
19968;DHT22;10145;49.152;9.282;2023-05-06T05:00:58;13.30;99.90
19968;DHT22;10145;49.152;9.282;2023-05-06T05:03:23;13.50;99.90
19968;DHT22;10145;49.152;9.282;2023-05-06T05:05:49;13.30;99.90
19968;DHT22;10145;49.152;9.282;2023-05-06T05:08:15;13.20;99.90
19968;DHT22;10145;49.152;9.282;2023-05-06T05:10:41;13.20;99.90
19968;DHT22;10145;49.152;9.282;2023-05-06T05:13:07;13.20;99.90
19968;DHT22;10145;49.152;9.282;2023-05-06T05:15:33;13.30;99.90
19968;DHT22;10145;49.152;9.282;2023-05-06T05:17:58;13.50;99.90
19968;DHT22;10145;49.152;9.282;2023-05-06T05:20:24;13.60;99.90
19968;DHT22;10145;49.152;9.282;2023-05-06T05:22:49;13.60;99.90
19968;DHT22;10145;49.152;9.282;2023-05-06T05:25:15;13.60;99.90
19968;DHT22;10145;49.152;9.282;2023-05-06T05:27:41;13.60;99.90
19968;DHT22;10145;49.152;9.282;2023-05-06T05:30:07;13.70;99.90
19968;DHT22;10145;49.152;9.282;2023-05-06T05:32:33;13.80;99.90
19968;DHT22;10145;49.152;9.282;2023-05-06T05:34:59;13.90;99.90
19968;DHT22;10145;49.152;9.282;2023-05-06T05:37:24;13.80;99.90
19968;DHT22;10145;49.152;9.282;2023-05-06T05:39:50;13.80;99.90
19968;DHT22;10145;49.152;9.282;2023-05-06T05:42:16;13.80;99.90
19968;DHT22;10145;49.152;9.282;2023-05-06T05:44:41;13.80;99.90
19968;DHT22;10145;49.152;9.282;2023-05-06T05:47:07;13.70;99.90
19968;DHT22;10145;49.152;9.282;2023-05-06T05:49:32;13.80;99.90
19968;DHT22;10145;49.152;9.282;2023-05-06T05:51:58;13.80;99.90
19968;DHT22;10145;49.152;9.282;2023-05-06T05:54:23;13.90;99.90
19968;DHT22;10145;49.152;9.282;2023-05-06T05:56:49;14.10;99.90
19968;DHT22;10145;49.152;9.282;2023-05-06T05:59:14;14.10;99.90
19968;DHT22;10145;49.152;9.282;2023-05-06T06:01:40;14.20;99.90
19968;DHT22;10145;49.152;9.282;2023-05-06T06:04:05;14.30;99.90
19968;DHT22;10145;49.152;9.282;2023-05-06T06:06:31;14.30;99.90
19968;DHT22;10145;49.152;9.282;2023-05-06T06:08:57;14.30;99.90
19968;DHT22;10145;49.152;9.282;2023-05-06T06:11:23;14.30;99.90
19968;DHT22;10145;49.152;9.282;2023-05-06T06:13:51;14.30;99.90
19968;DHT22;10145;49.152;9.282;2023-05-06T06:16:16;14.20;99.90
19968;DHT22;10145;49.152;9.282;2023-05-06T06:18:42;14.30;99.90
19968;DHT22;10145;49.152;9.282;2023-05-06T06:21:07;14.50;99.90
19968;DHT22;10145;49.152;9.282;2023-05-06T06:23:33;14.60;99.90
19968;DHT22;10145;49.152;9.282;2023-05-06T06:25:59;14.80;99.90
19968;DHT22;10145;49.152;9.282;2023-05-06T06:28:25;15.20;99.90
19968;DHT22;10145;49.152;9.282;2023-05-06T06:30:51;15.10;99.90
19968;DHT22;10145;49.152;9.282;2023-05-06T06:33:16;15.20;99.90
19968;DHT22;10145;49.152;9.282;2023-05-06T06:35:42;15.10;99.90
19968;DHT22;10145;49.152;9.282;2023-05-06T06:38:07;15.20;99.90
19968;DHT22;10145;49.152;9.282;2023-05-06T06:40:33;15.30;99.90
19968;DHT22;10145;49.152;9.282;2023-05-06T06:42:59;15.10;99.90
19968;DHT22;10145;49.152;9.282;2023-05-06T06:45:25;15.10;99.90
19968;DHT22;10145;49.152;9.282;2023-05-06T06:47:51;15.00;99.90
19968;DHT22;10145;49.152;9.282;2023-05-06T06:50:16;15.00;99.90
19968;DHT22;10145;49.152;9.282;2023-05-06T06:52:45;15.10;99.90
19968;DHT22;10145;49.152;9.282;2023-05-06T06:55:11;15.00;99.90
19968;DHT22;10145;49.152;9.282;2023-05-06T06:57:37;14.90;99.90
19968;DHT22;10145;49.152;9.282;2023-05-06T07:00:03;14.90;99.90
19968;DHT22;10145;49.152;9.282;2023-05-06T07:02:29;14.80;99.90
19968;DHT22;10145;49.152;9.282;2023-05-06T07:04:55;14.90;99.90
19968;DHT22;10145;49.152;9.282;2023-05-06T07:07:20;14.80;99.90
19968;DHT22;10145;49.152;9.282;2023-05-06T07:09:46;14.80;99.90
19968;DHT22;10145;49.152;9.282;2023-05-06T07:12:12;15.10;99.90
19968;DHT22;10145;49.152;9.282;2023-05-06T07:14:37;15.70;99.90
19968;DHT22;10145;49.152;9.282;2023-05-06T07:17:03;15.90;99.90
19968;DHT22;10145;49.152;9.282;2023-05-06T07:19:29;16.10;99.90
19968;DHT22;10145;49.152;9.282;2023-05-06T07:21:57;16.30;99.90
19968;DHT22;10145;49.152;9.282;2023-05-06T07:24:23;16.50;99.90
19968;DHT22;10145;49.152;9.282;2023-05-06T07:26:49;16.40;99.90
19968;DHT22;10145;49.152;9.282;2023-05-06T07:29:15;16.20;99.90
19968;DHT22;10145;49.152;9.282;2023-05-06T07:31:40;15.90;99.90
19968;DHT22;10145;49.152;9.282;2023-05-06T07:34:06;15.50;99.90
19968;DHT22;10145;49.152;9.282;2023-05-06T07:36:32;15.30;99.90
19968;DHT22;10145;49.152;9.282;2023-05-06T07:39:07;15.20;99.90
19968;DHT22;10145;49.152;9.282;2023-05-06T07:41:33;15.20;99.90
19968;DHT22;10145;49.152;9.282;2023-05-06T07:43:58;15.30;99.90
19968;DHT22;10145;49.152;9.282;2023-05-06T07:46:24;15.30;99.90
19968;DHT22;10145;49.152;9.282;2023-05-06T07:48:50;15.50;99.90
19968;DHT22;10145;49.152;9.282;2023-05-06T07:51:15;15.70;99.90
19968;DHT22;10145;49.152;9.282;2023-05-06T07:53:42;16.10;99.90
19968;DHT22;10145;49.152;9.282;2023-05-06T07:56:07;16.50;99.90
19968;DHT22;10145;49.152;9.282;2023-05-06T07:58:33;17.00;99.90
19968;DHT22;10145;49.152;9.282;2023-05-06T08:00:59;17.00;99.90
19968;DHT22;10145;49.152;9.282;2023-05-06T08:03:25;17.10;99.90
19968;DHT22;10145;49.152;9.282;2023-05-06T08:05:51;17.50;99.90
19968;DHT22;10145;49.152;9.282;2023-05-06T08:08:21;17.60;99.90
19968;DHT22;10145;49.152;9.282;2023-05-06T08:10:46;18.00;99.90
19968;DHT22;10145;49.152;9.282;2023-05-06T08:13:12;18.10;99.90
19968;DHT22;10145;49.152;9.282;2023-05-06T08:15:38;17.90;99.90
19968;DHT22;10145;49.152;9.282;2023-05-06T08:18:04;17.60;99.90
19968;DHT22;10145;49.152;9.282;2023-05-06T08:20:29;18.00;99.90
19968;DHT22;10145;49.152;9.282;2023-05-06T08:22:55;18.60;99.90
19968;DHT22;10145;49.152;9.282;2023-05-06T08:25:20;19.00;99.90
19968;DHT22;10145;49.152;9.282;2023-05-06T08:27:46;18.80;99.90
19968;DHT22;10145;49.152;9.282;2023-05-06T08:30:12;19.00;99.90
19968;DHT22;10145;49.152;9.282;2023-05-06T08:32:38;19.10;99.90
19968;DHT22;10145;49.152;9.282;2023-05-06T08:35:05;19.30;99.90
19968;DHT22;10145;49.152;9.282;2023-05-06T08:37:31;19.10;99.90
19968;DHT22;10145;49.152;9.282;2023-05-06T08:39:57;18.80;99.90
19968;DHT22;10145;49.152;9.282;2023-05-06T08:42:24;18.80;99.90
19968;DHT22;10145;49.152;9.282;2023-05-06T08:44:51;18.40;99.90
19968;DHT22;10145;49.152;9.282;2023-05-06T08:47:20;18.00;99.90
19968;DHT22;10145;49.152;9.282;2023-05-06T08:49:46;17.50;99.90
19968;DHT22;10145;49.152;9.282;2023-05-06T08:52:12;17.10;99.90
19968;DHT22;10145;49.152;9.282;2023-05-06T08:54:38;17.10;99.90
19968;DHT22;10145;49.152;9.282;2023-05-06T08:57:10;17.40;99.90
19968;DHT22;10145;49.152;9.282;2023-05-06T08:59:36;17.90;99.90
19968;DHT22;10145;49.152;9.282;2023-05-06T09:02:03;18.00;99.90
19968;DHT22;10145;49.152;9.282;2023-05-06T09:04:29;18.10;99.90
19968;DHT22;10145;49.152;9.282;2023-05-06T09:06:57;18.10;99.90
19968;DHT22;10145;49.152;9.282;2023-05-06T09:09:23;18.30;99.90
19968;DHT22;10145;49.152;9.282;2023-05-06T09:11:49;18.50;99.90
19968;DHT22;10145;49.152;9.282;2023-05-06T09:14:20;18.70;99.90
19968;DHT22;10145;49.152;9.282;2023-05-06T09:16:49;18.40;99.90
19968;DHT22;10145;49.152;9.282;2023-05-06T09:19:16;18.50;99.90
19968;DHT22;10145;49.152;9.282;2023-05-06T09:21:44;18.40;99.90
19968;DHT22;10145;49.152;9.282;2023-05-06T09:24:12;18.10;99.90
19968;DHT22;10145;49.152;9.282;2023-05-06T09:26:39;18.20;99.90
19968;DHT22;10145;49.152;9.282;2023-05-06T09:29:05;18.40;99.90
19968;DHT22;10145;49.152;9.282;2023-05-06T09:31:31;18.60;99.90
19968;DHT22;10145;49.152;9.282;2023-05-06T09:33:58;18.80;99.90
19968;DHT22;10145;49.152;9.282;2023-05-06T09:36:26;19.30;99.90
19968;DHT22;10145;49.152;9.282;2023-05-06T09:38:53;19.70;99.90
19968;DHT22;10145;49.152;9.282;2023-05-06T09:41:21;19.50;99.90
19968;DHT22;10145;49.152;9.282;2023-05-06T09:43:49;19.20;99.90
19968;DHT22;10145;49.152;9.282;2023-05-06T09:46:15;19.30;99.90
19968;DHT22;10145;49.152;9.282;2023-05-06T09:48:41;19.30;99.90
19968;DHT22;10145;49.152;9.282;2023-05-06T09:51:07;19.60;99.90
19968;DHT22;10145;49.152;9.282;2023-05-06T09:53:36;19.60;99.90
19968;DHT22;10145;49.152;9.282;2023-05-06T09:56:06;19.90;99.90
19968;DHT22;10145;49.152;9.282;2023-05-06T09:58:33;20.30;99.90
19968;DHT22;10145;49.152;9.282;2023-05-06T10:00:59;20.60;99.90
19968;DHT22;10145;49.152;9.282;2023-05-06T10:03:26;20.90;99.90
19968;DHT22;10145;49.152;9.282;2023-05-06T10:05:55;21.20;99.90
19968;DHT22;10145;49.152;9.282;2023-05-06T10:08:24;21.50;99.90
19968;DHT22;10145;49.152;9.282;2023-05-06T10:10:50;20.90;99.90
19968;DHT22;10145;49.152;9.282;2023-05-06T10:13:17;21.30;99.90
19968;DHT22;10145;49.152;9.282;2023-05-06T10:15:45;21.70;99.30
19968;DHT22;10145;49.152;9.282;2023-05-06T10:18:14;21.90;97.70
19968;DHT22;10145;49.152;9.282;2023-05-06T10:20:41;22.20;96.10
19968;DHT22;10145;49.152;9.282;2023-05-06T10:25:46;22.40;94.60
19968;DHT22;10145;49.152;9.282;2023-05-06T10:28:18;22.10;94.30
19968;DHT22;10145;49.152;9.282;2023-05-06T10:30:45;22.00;94.90
19968;DHT22;10145;49.152;9.282;2023-05-06T10:33:13;21.90;94.70
19968;DHT22;10145;49.152;9.282;2023-05-06T10:36:02;21.60;94.20
19968;DHT22;10145;49.152;9.282;2023-05-06T10:38:36;22.10;95.80
19968;DHT22;10145;49.152;9.282;2023-05-06T10:41:06;22.60;95.10
19968;DHT22;10145;49.152;9.282;2023-05-06T10:43:33;22.90;92.80
19968;DHT22;10145;49.152;9.282;2023-05-06T10:46:03;23.00;93.00
19968;DHT22;10145;49.152;9.282;2023-05-06T10:48:30;23.30;92.20
19968;DHT22;10145;49.152;9.282;2023-05-06T10:54:06;23.40;90.50
19968;DHT22;10145;49.152;9.282;2023-05-06T10:59:25;22.50;90.30
19968;DHT22;10145;49.152;9.282;2023-05-06T11:01:58;22.70;88.60
19968;DHT22;10145;49.152;9.282;2023-05-06T11:04:31;22.70;89.60
19968;DHT22;10145;49.152;9.282;2023-05-06T11:07:12;22.60;92.20
19968;DHT22;10145;49.152;9.282;2023-05-06T11:10:00;22.30;90.50
19968;DHT22;10145;49.152;9.282;2023-05-06T11:12:45;22.30;93.50
19968;DHT22;10145;49.152;9.282;2023-05-06T11:15:39;22.80;91.40
19968;DHT22;10145;49.152;9.282;2023-05-06T11:26:10;22.50;92.00
19968;DHT22;10145;49.152;9.282;2023-05-06T11:28:37;23.00;90.80
19968;DHT22;10145;49.152;9.282;2023-05-06T11:31:03;23.30;90.40
19968;DHT22;10145;49.152;9.282;2023-05-06T11:33:33;23.40;88.70
19968;DHT22;10145;49.152;9.282;2023-05-06T11:35:59;23.60;87.70
19968;DHT22;10145;49.152;9.282;2023-05-06T11:38:26;23.10;87.90
19968;DHT22;10145;49.152;9.282;2023-05-06T11:40:51;22.90;87.90
19968;DHT22;10145;49.152;9.282;2023-05-06T11:43:17;22.50;87.90
19968;DHT22;10145;49.152;9.282;2023-05-06T11:45:45;22.20;88.90
19968;DHT22;10145;49.152;9.282;2023-05-06T11:48:15;22.40;90.10
19968;DHT22;10145;49.152;9.282;2023-05-06T11:50:48;22.60;91.00
19968;DHT22;10145;49.152;9.282;2023-05-06T11:53:16;22.80;87.10
19968;DHT22;10145;49.152;9.282;2023-05-06T11:55:44;23.10;86.10
19968;DHT22;10145;49.152;9.282;2023-05-06T11:58:26;22.90;90.50
19968;DHT22;10145;49.152;9.282;2023-05-06T12:00:56;23.30;91.00
19968;DHT22;10145;49.152;9.282;2023-05-06T12:03:23;23.50;87.70
19968;DHT22;10145;49.152;9.282;2023-05-06T12:05:49;23.80;90.10
19968;DHT22;10145;49.152;9.282;2023-05-06T12:08:18;23.80;84.30
19968;DHT22;10145;49.152;9.282;2023-05-06T12:10:45;23.90;82.70
19968;DHT22;10145;49.152;9.282;2023-05-06T12:13:11;23.60;84.10
19968;DHT22;10145;49.152;9.282;2023-05-06T12:15:39;23.30;84.20
19968;DHT22;10145;49.152;9.282;2023-05-06T12:18:05;23.50;84.00
19968;DHT22;10145;49.152;9.282;2023-05-06T12:20:31;23.60;81.30
19968;DHT22;10145;49.152;9.282;2023-05-06T12:23:11;23.70;81.90
19968;DHT22;10145;49.152;9.282;2023-05-06T12:25:38;24.30;80.90
19968;DHT22;10145;49.152;9.282;2023-05-06T12:28:14;24.60;81.80
19968;DHT22;10145;49.152;9.282;2023-05-06T12:30:40;24.70;76.10
19968;DHT22;10145;49.152;9.282;2023-05-06T12:33:07;24.80;78.80
19968;DHT22;10145;49.152;9.282;2023-05-06T12:35:32;24.90;78.80
19968;DHT22;10145;49.152;9.282;2023-05-06T12:38:12;24.30;83.50
19968;DHT22;10145;49.152;9.282;2023-05-06T12:40:39;23.70;80.20
19968;DHT22;10145;49.152;9.282;2023-05-06T12:43:05;22.70;81.90
19968;DHT22;10145;49.152;9.282;2023-05-06T12:45:31;23.20;82.70
19968;DHT22;10145;49.152;9.282;2023-05-06T12:47:58;23.60;79.20
19968;DHT22;10145;49.152;9.282;2023-05-06T12:50:41;23.50;80.20
19968;DHT22;10145;49.152;9.282;2023-05-06T12:53:08;23.50;79.10
19968;DHT22;10145;49.152;9.282;2023-05-06T12:55:38;23.90;78.20
19968;DHT22;10145;49.152;9.282;2023-05-06T12:58:17;24.40;79.30
19968;DHT22;10145;49.152;9.282;2023-05-06T13:00:43;25.00;78.50
19968;DHT22;10145;49.152;9.282;2023-05-06T13:03:09;24.90;73.80
19968;DHT22;10145;49.152;9.282;2023-05-06T13:05:35;24.70;75.30
19968;DHT22;10145;49.152;9.282;2023-05-06T13:08:01;24.60;74.50
19968;DHT22;10145;49.152;9.282;2023-05-06T13:10:27;24.50;78.30
19968;DHT22;10145;49.152;9.282;2023-05-06T13:12:52;24.90;78.00
19968;DHT22;10145;49.152;9.282;2023-05-06T13:15:18;25.00;78.40
19968;DHT22;10145;49.152;9.282;2023-05-06T13:17:43;25.00;78.50
19968;DHT22;10145;49.152;9.282;2023-05-06T13:20:09;25.40;78.10
19968;DHT22;10145;49.152;9.282;2023-05-06T13:22:37;25.60;73.30
19968;DHT22;10145;49.152;9.282;2023-05-06T13:25:03;26.10;73.50
19968;DHT22;10145;49.152;9.282;2023-05-06T13:27:29;26.50;72.10
19968;DHT22;10145;49.152;9.282;2023-05-06T13:29:55;26.50;69.50
19968;DHT22;10145;49.152;9.282;2023-05-06T13:32:21;26.30;68.90
19968;DHT22;10145;49.152;9.282;2023-05-06T13:34:46;26.00;69.00
19968;DHT22;10145;49.152;9.282;2023-05-06T13:37:12;26.20;69.60
19968;DHT22;10145;49.152;9.282;2023-05-06T13:39:37;27.00;67.90
19968;DHT22;10145;49.152;9.282;2023-05-06T13:42:03;28.00;63.50
19968;DHT22;10145;49.152;9.282;2023-05-06T13:44:29;27.80;62.80
19968;DHT22;10145;49.152;9.282;2023-05-06T13:46:55;27.50;66.70
19968;DHT22;10145;49.152;9.282;2023-05-06T13:49:20;27.80;67.10
19968;DHT22;10145;49.152;9.282;2023-05-06T13:51:46;28.50;60.50
19968;DHT22;10145;49.152;9.282;2023-05-06T13:54:11;28.90;59.80
19968;DHT22;10145;49.152;9.282;2023-05-06T13:56:37;28.80;60.60
19968;DHT22;10145;49.152;9.282;2023-05-06T13:59:02;29.00;63.30
19968;DHT22;10145;49.152;9.282;2023-05-06T14:01:28;29.50;61.70
19968;DHT22;10145;49.152;9.282;2023-05-06T14:03:54;29.10;59.40
19968;DHT22;10145;49.152;9.282;2023-05-06T14:06:19;28.90;63.80
19968;DHT22;10145;49.152;9.282;2023-05-06T14:08:45;28.90;59.20
19968;DHT22;10145;49.152;9.282;2023-05-06T14:11:11;29.50;58.20
19968;DHT22;10145;49.152;9.282;2023-05-06T14:13:37;29.40;58.30
19968;DHT22;10145;49.152;9.282;2023-05-06T14:16:03;28.90;57.80
19968;DHT22;10145;49.152;9.282;2023-05-06T14:18:30;29.50;58.80
19968;DHT22;10145;49.152;9.282;2023-05-06T14:20:55;29.60;56.30
19968;DHT22;10145;49.152;9.282;2023-05-06T14:23:21;30.00;63.60
19968;DHT22;10145;49.152;9.282;2023-05-06T14:25:47;30.50;58.10
19968;DHT22;10145;49.152;9.282;2023-05-06T14:28:13;30.20;53.10
19968;DHT22;10145;49.152;9.282;2023-05-06T14:30:40;29.50;56.30
19968;DHT22;10145;49.152;9.282;2023-05-06T14:33:09;28.70;56.40
19968;DHT22;10145;49.152;9.282;2023-05-06T14:35:34;29.50;55.30
19968;DHT22;10145;49.152;9.282;2023-05-06T14:38:00;29.60;53.00
19968;DHT22;10145;49.152;9.282;2023-05-06T14:40:26;30.10;57.60
19968;DHT22;10145;49.152;9.282;2023-05-06T14:42:51;29.60;55.80
19968;DHT22;10145;49.152;9.282;2023-05-06T14:45:18;30.20;54.70
19968;DHT22;10145;49.152;9.282;2023-05-06T14:47:44;30.10;56.20
19968;DHT22;10145;49.152;9.282;2023-05-06T14:50:10;29.70;52.70
19968;DHT22;10145;49.152;9.282;2023-05-06T14:52:38;29.20;53.90
19968;DHT22;10145;49.152;9.282;2023-05-06T14:55:05;29.50;54.50
19968;DHT22;10145;49.152;9.282;2023-05-06T14:57:32;29.70;53.00
19968;DHT22;10145;49.152;9.282;2023-05-06T14:59:57;30.60;52.80
19968;DHT22;10145;49.152;9.282;2023-05-06T15:02:23;31.20;50.60
19968;DHT22;10145;49.152;9.282;2023-05-06T15:04:49;31.50;51.00
19968;DHT22;10145;49.152;9.282;2023-05-06T15:07:14;32.80;47.90
19968;DHT22;10145;49.152;9.282;2023-05-06T15:09:40;32.80;49.00
19968;DHT22;10145;49.152;9.282;2023-05-06T15:12:09;32.40;50.00
19968;DHT22;10145;49.152;9.282;2023-05-06T15:14:35;32.20;52.40
19968;DHT22;10145;49.152;9.282;2023-05-06T15:17:01;31.90;48.30
19968;DHT22;10145;49.152;9.282;2023-05-06T15:19:27;31.50;51.20
19968;DHT22;10145;49.152;9.282;2023-05-06T15:21:55;31.70;49.40
19968;DHT22;10145;49.152;9.282;2023-05-06T15:24:22;31.10;50.10
19968;DHT22;10145;49.152;9.282;2023-05-06T15:26:48;30.90;52.00
19968;DHT22;10145;49.152;9.282;2023-05-06T15:29:13;30.70;54.00
19968;DHT22;10145;49.152;9.282;2023-05-06T15:31:39;30.20;52.50
19968;DHT22;10145;49.152;9.282;2023-05-06T15:34:08;30.00;51.60
19968;DHT22;10145;49.152;9.282;2023-05-06T15:36:35;30.10;51.50
19968;DHT22;10145;49.152;9.282;2023-05-06T15:39:00;30.70;54.60
19968;DHT22;10145;49.152;9.282;2023-05-06T15:41:27;31.40;51.70
19968;DHT22;10145;49.152;9.282;2023-05-06T15:43:55;31.70;54.20
19968;DHT22;10145;49.152;9.282;2023-05-06T15:46:21;32.60;52.40
19968;DHT22;10145;49.152;9.282;2023-05-06T15:48:46;32.80;52.60
19968;DHT22;10145;49.152;9.282;2023-05-06T15:51:12;32.30;50.00
19968;DHT22;10145;49.152;9.282;2023-05-06T15:53:38;31.90;52.60
19968;DHT22;10145;49.152;9.282;2023-05-06T15:56:08;31.20;49.70